createdAt,value
2018-05-31T00:01:29.374Z,10.77
2018-05-31T00:03:56.965Z,11.60
2018-05-31T00:06:24.602Z,11.23
2018-05-31T00:08:52.180Z,11.00
2018-05-31T00:11:19.833Z,10.90
2018-05-31T00:13:47.457Z,11.10
2018-05-31T00:16:15.123Z,11.63
2018-05-31T00:18:43.562Z,10.97
2018-05-31T00:21:11.561Z,11.00
2018-05-31T00:23:39.226Z,11.17
2018-05-31T00:26:06.908Z,11.27
2018-05-31T00:28:34.569Z,11.50
2018-05-31T00:31:02.195Z,11.13
2018-05-31T00:33:29.746Z,12.03
2018-05-31T00:35:57.397Z,12.00
2018-05-31T00:38:24.999Z,11.03
2018-05-31T00:40:52.673Z,11.20
2018-05-31T00:43:20.251Z,11.43
2018-05-31T00:45:47.881Z,11.37
2018-05-31T00:48:15.446Z,11.77
2018-05-31T00:50:43.073Z,12.13
2018-05-31T00:53:10.697Z,12.17
2018-05-31T00:55:50.080Z,11.53
2018-05-31T00:58:17.745Z,11.43
2018-05-31T01:00:45.388Z,12.40
2018-05-31T01:03:12.980Z,12.03
2018-05-31T01:05:40.570Z,11.87
2018-05-31T01:08:08.147Z,11.63
2018-05-31T01:10:35.803Z,11.43
2018-05-31T01:13:03.410Z,11.57
2018-05-31T01:15:31.026Z,11.93
2018-05-31T01:17:58.573Z,11.80
2018-05-31T01:20:26.208Z,13.37
2018-05-31T01:22:53.750Z,11.80
2018-05-31T01:25:21.325Z,12.90
2018-05-31T01:27:48.917Z,11.50
2018-05-31T01:30:16.537Z,12.40
2018-05-31T01:32:44.098Z,11.50
2018-05-31T01:35:11.654Z,11.80
2018-05-31T01:37:39.249Z,12.23
2018-05-31T01:40:06.823Z,11.33
2018-05-31T01:42:34.430Z,11.37
2018-05-31T01:45:02.006Z,12.20
2018-05-31T01:47:29.586Z,12.77
2018-05-31T01:49:57.503Z,11.80
2018-05-31T01:52:25.131Z,13.13
2018-05-31T01:54:52.774Z,11.93
2018-05-31T01:57:20.373Z,11.90
2018-05-31T01:59:47.984Z,11.37
2018-05-31T02:02:15.566Z,12.30
2018-05-31T02:04:43.157Z,12.57
2018-05-31T02:07:10.765Z,13.43
2018-05-31T02:09:38.369Z,11.87
2018-05-31T02:12:05.996Z,12.33
2018-05-31T02:14:33.610Z,12.20
2018-05-31T02:17:01.260Z,12.33
2018-05-31T02:19:28.840Z,12.13
2018-05-31T02:21:56.452Z,12.00
2018-05-31T02:24:24.071Z,11.33
2018-05-31T02:26:51.715Z,12.43
2018-05-31T02:29:19.370Z,11.87
2018-05-31T02:31:47.040Z,12.33
2018-05-31T02:34:14.646Z,11.63
2018-05-31T02:36:42.239Z,11.43
2018-05-31T02:39:09.847Z,12.53
2018-05-31T02:41:37.436Z,11.67
2018-05-31T02:44:05.036Z,12.03
2018-05-31T02:46:32.646Z,13.43
2018-05-31T02:49:00.250Z,11.53
2018-05-31T02:51:27.836Z,12.57
2018-05-31T02:53:55.477Z,12.77
2018-05-31T02:56:23.088Z,12.27
2018-05-31T02:58:50.689Z,12.80
2018-05-31T03:01:18.292Z,12.37
2018-05-31T03:03:45.904Z,10.73
2018-05-31T03:06:13.522Z,11.90
2018-05-31T03:08:42.063Z,12.43
2018-05-31T03:11:09.696Z,12.20
2018-05-31T03:13:37.273Z,11.67
2018-05-31T03:16:04.838Z,12.07
2018-05-31T03:18:32.425Z,11.23
2018-05-31T03:21:00.055Z,11.67
2018-05-31T03:23:27.719Z,11.87
2018-05-31T03:25:55.353Z,11.87
2018-05-31T03:28:22.990Z,11.33
2018-05-31T03:30:50.654Z,11.27
2018-05-31T03:33:18.279Z,10.73
2018-05-31T03:35:45.893Z,11.27
2018-05-31T03:38:13.512Z,11.73
2018-05-31T03:40:41.633Z,12.13
2018-05-31T03:43:09.244Z,11.20
2018-05-31T03:45:36.834Z,10.60
2018-05-31T03:48:04.477Z,10.87
2018-05-31T03:50:32.101Z,11.40
2018-05-31T03:52:59.729Z,11.07
2018-05-31T03:55:27.346Z,11.10
2018-05-31T03:57:54.958Z,12.03
2018-05-31T04:00:22.571Z,11.33
2018-05-31T04:02:50.351Z,11.43
2018-05-31T04:05:17.992Z,11.07
2018-05-31T04:07:45.626Z,10.73
2018-05-31T04:10:13.177Z,10.47
2018-05-31T04:12:40.871Z,10.87
2018-05-31T04:15:09.329Z,9.87
2018-05-31T04:17:36.918Z,9.70
2018-05-31T04:20:04.557Z,9.57
2018-05-31T04:22:32.198Z,9.23
2018-05-31T04:24:59.802Z,8.60
2018-05-31T04:27:27.377Z,10.00
2018-05-31T04:29:54.993Z,9.57
2018-05-31T04:32:22.594Z,9.37
2018-05-31T04:34:50.260Z,9.60
2018-05-31T04:37:17.890Z,9.43
2018-05-31T04:39:45.607Z,10.03
2018-05-31T04:42:13.253Z,9.70
2018-05-31T04:44:40.873Z,9.47
2018-05-31T04:47:08.471Z,10.40
2018-05-31T04:49:36.144Z,10.80
2018-05-31T04:52:03.800Z,10.40
2018-05-31T04:54:31.419Z,9.30
2018-05-31T04:56:58.972Z,11.70
2018-05-31T04:59:26.685Z,11.90
2018-05-31T05:01:54.343Z,9.93
2018-05-31T05:04:21.924Z,9.43
2018-05-31T05:06:49.494Z,9.47
2018-05-31T05:09:17.140Z,8.77
2018-05-31T05:11:44.742Z,8.87
2018-05-31T05:14:12.340Z,8.40
2018-05-31T05:16:39.938Z,7.60
2018-05-31T05:19:07.575Z,8.83
2018-05-31T05:21:35.208Z,9.77
2018-05-31T05:24:02.813Z,10.57
2018-05-31T05:26:30.461Z,9.93
2018-05-31T05:28:58.012Z,8.83
2018-05-31T05:31:25.660Z,9.30
2018-05-31T05:33:53.305Z,11.10
2018-05-31T05:36:20.868Z,10.83
2018-05-31T05:38:49.030Z,10.77
2018-05-31T05:41:16.614Z,11.17
2018-05-31T05:43:44.227Z,11.33
2018-05-31T05:46:11.793Z,10.90
2018-05-31T05:48:39.396Z,10.00
2018-05-31T05:51:06.952Z,9.27
2018-05-31T05:53:34.514Z,8.47
2018-05-31T05:56:02.062Z,8.70
2018-05-31T05:58:29.642Z,7.97
2018-05-31T06:00:57.193Z,7.53
2018-05-31T06:03:24.738Z,7.80
2018-05-31T06:05:52.297Z,7.00
2018-05-31T06:08:19.842Z,7.17
2018-05-31T06:10:47.420Z,6.57
2018-05-31T06:13:14.960Z,6.23
2018-05-31T06:15:42.561Z,5.60
2018-05-31T06:18:10.218Z,9.17
2018-05-31T06:20:37.803Z,6.20
2018-05-31T06:23:05.360Z,13.33
2018-05-31T06:25:32.930Z,6.83
2018-05-31T06:28:00.483Z,12.23
2018-05-31T06:30:28.053Z,6.20
2018-05-31T06:32:55.587Z,7.30
2018-05-31T06:35:23.228Z,5.50
2018-05-31T06:40:22.811Z,6.10
2018-05-31T06:42:50.965Z,6.37
2018-05-31T06:45:18.599Z,10.67
2018-05-31T06:47:46.250Z,7.63
2018-05-31T06:50:13.927Z,6.07
2018-05-31T06:52:41.465Z,5.90
2018-05-31T06:55:09.032Z,5.15
2018-05-31T06:57:36.574Z,4.82
2018-05-31T07:00:04.116Z,5.12
2018-05-31T07:02:31.681Z,4.10
2018-05-31T07:04:59.323Z,4.60
2018-05-31T07:07:26.999Z,4.50
2018-05-31T07:09:54.902Z,4.93
2018-05-31T07:12:22.488Z,5.17
2018-05-31T07:14:50.117Z,4.60
2018-05-31T07:17:17.647Z,4.60
2018-05-31T07:19:45.213Z,4.23
2018-05-31T07:22:12.764Z,4.20
2018-05-31T07:24:40.374Z,4.97
2018-05-31T07:27:07.990Z,4.47
2018-05-31T07:29:35.569Z,4.43
2018-05-31T07:32:03.125Z,5.03
2018-05-31T07:34:30.671Z,5.63
2018-05-31T07:36:58.237Z,5.53
2018-05-31T07:39:25.786Z,4.83
2018-05-31T07:41:53.381Z,4.30
2018-05-31T07:44:20.989Z,4.73
2018-05-31T07:46:48.530Z,4.05
2018-05-31T07:49:16.111Z,4.15
2018-05-31T07:51:43.743Z,3.95
2018-05-31T07:54:11.363Z,4.12
2018-05-31T07:56:38.919Z,5.25
2018-05-31T07:59:06.514Z,6.87
2018-05-31T08:01:34.105Z,4.18
2018-05-31T08:04:01.697Z,4.32
2018-05-31T08:06:29.252Z,4.32
2018-05-31T08:08:56.817Z,3.67
2018-05-31T08:11:24.396Z,3.67
2018-05-31T08:13:51.936Z,4.22
2018-05-31T08:16:19.530Z,4.78
2018-05-31T08:18:47.109Z,3.67
2018-05-31T08:21:14.713Z,4.20
2018-05-31T08:23:42.312Z,4.20
2018-05-31T08:26:09.935Z,4.00
2018-05-31T08:28:37.535Z,4.15
2018-05-31T08:31:05.141Z,4.50
2018-05-31T08:33:32.689Z,4.12
2018-05-31T08:36:00.254Z,4.25
2018-05-31T08:38:27.829Z,4.30
2018-05-31T08:40:55.449Z,4.10
2018-05-31T08:43:23.011Z,4.87
2018-05-31T08:45:50.601Z,4.65
2018-05-31T08:48:18.188Z,4.40
2018-05-31T08:50:45.778Z,3.87
2018-05-31T08:53:13.390Z,4.72
2018-05-31T08:55:41.015Z,5.25
2018-05-31T08:58:08.707Z,5.03
2018-05-31T09:00:36.315Z,6.43
2018-05-31T09:03:03.886Z,4.72
2018-05-31T09:05:31.433Z,4.17
2018-05-31T09:07:59.031Z,4.72
2018-05-31T09:10:26.638Z,5.30
2018-05-31T09:12:54.206Z,5.12
2018-05-31T09:15:21.788Z,4.87
2018-05-31T09:17:49.414Z,5.18
2018-05-31T09:20:16.997Z,5.27
2018-05-31T09:22:44.581Z,4.82
2018-05-31T09:25:12.212Z,5.03
2018-05-31T09:27:39.767Z,4.47
2018-05-31T09:30:07.385Z,5.00
2018-05-31T09:32:34.997Z,4.50
2018-05-31T09:35:02.660Z,4.57
2018-05-31T09:37:30.212Z,5.93
2018-05-31T09:39:57.765Z,4.20
2018-05-31T09:42:25.317Z,4.30
2018-05-31T09:44:53.029Z,4.25
2018-05-31T09:47:20.708Z,4.97
2018-05-31T09:49:48.278Z,5.35
2018-05-31T09:52:15.842Z,5.00
2018-05-31T09:54:43.433Z,5.65
2018-05-31T09:57:11.065Z,5.37
2018-05-31T09:59:38.741Z,4.87
2018-05-31T10:02:06.308Z,4.47
2018-05-31T10:04:33.869Z,5.00
2018-05-31T10:07:02.034Z,18.20
2018-05-31T10:09:29.616Z,8.57
2018-05-31T10:11:57.210Z,5.28
2018-05-31T10:14:24.812Z,6.05
2018-05-31T10:16:52.426Z,8.20
2018-05-31T10:19:19.998Z,6.35
2018-05-31T10:21:47.575Z,5.35
2018-05-31T10:24:15.160Z,8.38
2018-05-31T10:26:42.754Z,6.10
2018-05-31T10:29:10.295Z,6.90
2018-05-31T10:31:37.897Z,6.82
2018-05-31T10:34:07.400Z,6.25
2018-05-31T10:36:36.465Z,6.32
2018-05-31T10:39:05.205Z,7.00
2018-05-31T10:41:32.814Z,7.20
2018-05-31T10:44:01.018Z,8.27
2018-05-31T10:46:28.699Z,8.82
2018-05-31T10:48:56.271Z,8.52
2018-05-31T10:51:23.969Z,9.30
2018-05-31T10:53:51.609Z,9.02
2018-05-31T10:56:19.164Z,7.35
2018-05-31T10:58:46.734Z,7.75
2018-05-31T11:01:14.254Z,7.65
2018-05-31T11:03:41.872Z,7.03
2018-05-31T11:06:09.397Z,7.87
2018-05-31T11:08:36.976Z,8.98
2018-05-31T11:11:04.528Z,8.25
2018-05-31T11:13:32.116Z,7.75
2018-05-31T11:15:59.704Z,7.32
2018-05-31T11:18:27.247Z,7.40
2018-05-31T11:20:54.796Z,6.60
2018-05-31T11:23:22.344Z,7.30
2018-05-31T11:25:49.936Z,7.15
2018-05-31T11:28:17.554Z,7.32
2018-05-31T11:30:45.113Z,7.70
2018-05-31T11:33:12.715Z,7.62
2018-05-31T11:35:40.331Z,7.10
2018-05-31T11:38:07.892Z,6.90
2018-05-31T11:40:35.514Z,6.35
2018-05-31T11:43:03.139Z,7.47
2018-05-31T11:45:30.737Z,6.90
2018-05-31T11:47:58.325Z,6.50
2018-05-31T11:50:25.889Z,6.30
2018-05-31T11:52:53.429Z,6.55
2018-05-31T11:55:21.030Z,6.65
2018-05-31T11:57:48.610Z,8.27
2018-05-31T12:00:16.243Z,7.28
2018-05-31T12:02:43.841Z,7.43
2018-05-31T12:05:11.424Z,7.22
2018-05-31T12:07:38.996Z,7.87
2018-05-31T12:10:06.663Z,6.60
2018-05-31T12:12:34.259Z,9.05
2018-05-31T12:15:01.834Z,6.97
2018-05-31T12:17:29.476Z,6.90
2018-05-31T12:19:57.077Z,6.80
2018-05-31T12:22:24.622Z,5.60
2018-05-31T12:24:52.207Z,5.53
2018-05-31T12:27:19.853Z,5.55
2018-05-31T12:29:47.422Z,6.40
2018-05-31T12:32:15.043Z,6.70
2018-05-31T12:34:42.646Z,5.70
2018-05-31T12:37:10.163Z,5.72
2018-05-31T12:39:38.926Z,5.53
2018-05-31T12:42:06.557Z,6.30
2018-05-31T12:44:34.198Z,5.75
2018-05-31T12:47:01.790Z,5.35
2018-05-31T12:49:29.421Z,6.40
2018-05-31T12:51:57.033Z,6.07
2018-05-31T12:54:24.601Z,5.78
2018-05-31T12:56:52.180Z,6.20
2018-05-31T12:59:19.745Z,6.20
2018-05-31T13:01:47.563Z,6.10
2018-05-31T13:04:15.158Z,6.80
2018-05-31T13:06:42.757Z,5.90
2018-05-31T13:09:11.238Z,6.35
2018-05-31T13:11:38.830Z,6.07
2018-05-31T13:14:06.357Z,5.70
2018-05-31T13:16:33.941Z,5.82
2018-05-31T13:19:01.597Z,5.78
2018-05-31T13:21:29.207Z,5.62
2018-05-31T13:23:56.774Z,6.22
2018-05-31T13:26:24.452Z,5.72
2018-05-31T13:28:52.026Z,5.00
2018-05-31T13:31:19.657Z,5.72
2018-05-31T13:33:47.198Z,5.68
2018-05-31T13:36:14.827Z,5.53
2018-05-31T13:38:42.406Z,5.35
2018-05-31T13:41:10.136Z,6.05
2018-05-31T13:43:37.724Z,5.97
2018-05-31T13:46:05.407Z,5.93
2018-05-31T13:48:33.071Z,5.50
2018-05-31T13:51:00.722Z,5.12
2018-05-31T13:53:28.310Z,5.00
2018-05-31T13:55:55.890Z,5.05
2018-05-31T13:58:23.511Z,5.50
2018-05-31T14:00:51.110Z,6.05
2018-05-31T14:03:18.797Z,5.85
2018-05-31T14:05:46.453Z,5.10
2018-05-31T14:08:14.159Z,5.05
2018-05-31T14:10:41.806Z,5.85
2018-05-31T14:13:09.565Z,6.43
2018-05-31T14:15:37.297Z,6.03
2018-05-31T14:18:05.066Z,5.43
2018-05-31T14:20:32.832Z,6.00
2018-05-31T14:23:00.430Z,5.33
2018-05-31T14:25:28.567Z,6.03
2018-05-31T14:27:56.253Z,6.60
2018-05-31T14:30:23.779Z,6.07
2018-05-31T14:32:51.574Z,5.33
2018-05-31T14:35:19.210Z,5.67
2018-05-31T14:37:46.996Z,6.15
2018-05-31T14:40:14.676Z,6.00
2018-05-31T14:42:42.312Z,5.60
2018-05-31T14:45:09.939Z,6.13
2018-05-31T14:47:37.535Z,5.70
2018-05-31T14:50:05.123Z,5.90
2018-05-31T14:52:36.473Z,6.03
2018-05-31T14:55:04.059Z,6.97
2018-05-31T14:57:31.652Z,6.27
2018-05-31T14:59:59.322Z,6.43
2018-05-31T15:02:26.954Z,6.40
2018-05-31T15:04:54.532Z,6.70
2018-05-31T15:07:22.115Z,6.70
2018-05-31T15:09:49.711Z,6.27
2018-05-31T15:12:17.268Z,6.73
2018-05-31T15:14:44.845Z,7.13
2018-05-31T15:17:12.479Z,6.53
2018-05-31T15:19:40.056Z,6.63
2018-05-31T15:22:07.611Z,6.70
2018-05-31T15:24:35.133Z,6.50
2018-05-31T15:27:02.694Z,6.80
2018-05-31T15:29:30.294Z,6.57
2018-05-31T15:31:57.889Z,6.70
2018-05-31T15:34:25.446Z,7.13
2018-05-31T15:36:53.029Z,6.50
2018-05-31T15:39:20.603Z,6.87
2018-05-31T15:41:48.162Z,6.97
2018-05-31T15:44:15.754Z,6.80
2018-05-31T15:46:43.341Z,6.70
2018-05-31T15:49:10.917Z,6.67
2018-05-31T15:51:38.472Z,6.87
2018-05-31T15:54:06.079Z,7.43
2018-05-31T15:56:33.662Z,7.13
2018-05-31T15:59:01.275Z,7.57
2018-05-31T16:01:28.819Z,6.90
2018-05-31T16:03:56.401Z,10.10
2018-05-31T16:06:23.965Z,6.90
2018-05-31T16:08:51.526Z,8.03
2018-05-31T16:11:19.161Z,6.53
2018-05-31T16:13:46.775Z,7.47
2018-05-31T16:16:14.367Z,8.10
2018-05-31T16:18:41.944Z,7.43
2018-05-31T16:21:09.914Z,7.30
2018-05-31T16:23:38.738Z,7.43
2018-05-31T16:26:06.400Z,6.80
2018-05-31T16:28:34.057Z,7.33
2018-05-31T16:31:01.667Z,7.87
2018-05-31T16:33:29.553Z,7.57
2018-05-31T16:35:57.199Z,7.30
2018-05-31T16:38:24.795Z,10.37
2018-05-31T16:40:52.420Z,8.10
2018-05-31T16:43:20.153Z,8.43
2018-05-31T16:45:48.728Z,10.53
2018-05-31T16:48:16.384Z,9.93
2018-05-31T16:50:43.972Z,9.57
2018-05-31T16:53:12.026Z,9.53
2018-05-31T16:55:39.610Z,9.70
2018-05-31T16:58:07.243Z,10.40
2018-05-31T17:00:34.771Z,11.57
2018-05-31T17:03:02.390Z,9.37
2018-05-31T17:05:30.023Z,7.93
2018-05-31T17:07:57.741Z,8.53
2018-05-31T17:10:25.327Z,9.37
2018-05-31T17:12:52.899Z,8.70
2018-05-31T17:15:20.461Z,9.60
2018-05-31T17:17:48.044Z,10.67
2018-05-31T17:20:15.626Z,8.57
2018-05-31T17:22:43.216Z,9.37
2018-05-31T17:25:10.796Z,10.33
2018-05-31T17:27:38.358Z,9.07
2018-05-31T17:30:05.988Z,8.97
2018-05-31T17:32:33.593Z,9.87
2018-05-31T17:35:01.161Z,9.83
2018-05-31T17:37:28.716Z,9.03
2018-05-31T17:39:56.332Z,9.40
2018-05-31T17:42:23.920Z,8.90
2018-05-31T17:44:51.534Z,11.17
2018-05-31T17:47:19.092Z,11.10
2018-05-31T17:49:46.677Z,11.30
2018-05-31T17:52:14.231Z,16.73
2018-05-31T17:54:41.823Z,16.30
2018-05-31T17:57:09.388Z,18.93
2018-05-31T17:59:37.006Z,19.50
2018-05-31T18:02:04.571Z,18.93
2018-05-31T18:04:32.131Z,20.10
2018-05-31T18:06:59.905Z,17.33
2018-05-31T18:09:27.485Z,15.43
2018-05-31T18:11:55.053Z,15.40
2018-05-31T18:14:22.697Z,15.70
2018-05-31T18:16:50.221Z,14.53
2018-05-31T18:19:18.805Z,15.80
2018-05-31T18:21:46.354Z,15.10
2018-05-31T18:24:13.941Z,14.50
2018-05-31T18:26:41.503Z,13.80
2018-05-31T18:29:09.093Z,14.33
2018-05-31T18:31:36.693Z,14.70
2018-05-31T18:34:04.234Z,14.30
2018-05-31T18:36:31.829Z,13.67
2018-05-31T18:38:59.419Z,14.17
2018-05-31T18:41:26.983Z,13.80
2018-05-31T18:43:54.537Z,14.70
2018-05-31T18:46:22.116Z,14.43
2018-05-31T18:48:49.683Z,13.73
2018-05-31T18:51:20.277Z,13.67
2018-05-31T18:53:47.832Z,14.63
2018-05-31T18:56:15.415Z,13.90
2018-05-31T18:58:42.974Z,13.77
2018-05-31T19:01:10.626Z,13.77
2018-05-31T19:03:38.169Z,14.40
2018-05-31T19:06:05.796Z,13.37
2018-05-31T19:08:33.363Z,14.83
2018-05-31T19:11:01.002Z,14.40
2018-05-31T19:13:34.181Z,15.07
2018-05-31T19:16:01.768Z,16.17
2018-05-31T19:18:34.866Z,16.03
2018-05-31T19:21:02.487Z,14.93
2018-05-31T19:23:30.084Z,17.10
2018-05-31T19:25:57.696Z,16.80
2018-05-31T19:28:25.287Z,18.00
2018-05-31T19:30:58.406Z,16.07
2018-05-31T19:33:25.989Z,17.77
2018-05-31T19:35:59.198Z,19.67
2018-05-31T19:38:26.753Z,20.30
2018-05-31T19:40:54.351Z,17.67
2018-05-31T19:43:27.551Z,20.27
2018-05-31T19:45:55.138Z,21.30
2018-05-31T19:48:22.724Z,21.60
2018-05-31T19:50:50.316Z,19.20
2018-05-31T19:53:23.513Z,19.97
2018-05-31T19:55:51.174Z,21.13
2018-05-31T19:58:24.362Z,19.03
2018-05-31T20:00:57.551Z,19.47
2018-05-31T20:03:30.665Z,19.77
2018-05-31T20:05:58.267Z,19.73
2018-05-31T20:08:25.828Z,18.07
2018-05-31T20:10:53.424Z,18.30
2018-05-31T20:13:21.078Z,17.83
2018-05-31T20:15:48.716Z,18.83
2018-05-31T20:18:16.411Z,20.10
2018-05-31T20:20:43.961Z,20.30
2018-05-31T20:23:11.597Z,20.07
2018-05-31T20:25:39.219Z,18.67
2018-05-31T20:28:06.834Z,19.60
2018-05-31T20:30:34.413Z,18.63
2018-05-31T20:33:01.999Z,20.40
2018-05-31T20:35:29.629Z,20.10
2018-05-31T20:37:57.626Z,21.17
2018-05-31T20:40:25.215Z,19.97
2018-05-31T20:42:52.797Z,21.60
2018-05-31T20:45:20.435Z,21.20
2018-05-31T20:47:47.997Z,21.00
2018-05-31T20:50:15.584Z,22.37
2018-05-31T20:52:43.195Z,23.20
2018-05-31T20:55:10.787Z,21.90
2018-05-31T20:57:38.474Z,22.77
2018-05-31T21:00:06.097Z,22.60
2018-05-31T21:02:34.309Z,22.77
2018-05-31T21:05:01.886Z,23.97
2018-05-31T21:07:29.534Z,23.33
2018-05-31T21:09:57.133Z,24.37
2018-05-31T21:12:24.719Z,23.60
2018-05-31T21:14:52.343Z,23.63
2018-05-31T21:17:19.944Z,25.97
2018-05-31T21:19:47.535Z,24.30
2018-05-31T21:22:15.096Z,26.23
2018-05-31T21:24:42.670Z,27.30
2018-05-31T21:27:10.343Z,25.40
2018-05-31T21:29:37.924Z,26.63
2018-05-31T21:32:05.504Z,26.70
2018-05-31T21:34:33.078Z,24.33
2018-05-31T21:37:00.746Z,24.07
2018-05-31T21:39:28.304Z,24.13
2018-05-31T21:41:55.890Z,24.13
2018-05-31T21:44:23.453Z,25.00
2018-05-31T21:46:51.038Z,25.63
2018-05-31T21:49:18.636Z,26.43
2018-05-31T21:51:46.170Z,25.03
2018-05-31T21:54:13.763Z,24.60
2018-05-31T21:56:42.618Z,26.40
2018-05-31T21:59:10.208Z,25.77
2018-05-31T22:01:37.826Z,25.53
2018-05-31T22:04:05.416Z,26.03
2018-05-31T22:06:33.356Z,25.43
2018-05-31T22:09:00.942Z,26.53
2018-05-31T22:11:28.727Z,26.50
2018-05-31T22:13:56.290Z,24.90
2018-05-31T22:16:23.966Z,25.67
2018-05-31T22:18:51.584Z,25.00
2018-05-31T22:21:19.209Z,27.33
2018-05-31T22:23:47.070Z,28.27
2018-05-31T22:26:14.645Z,28.20
2018-05-31T22:28:42.225Z,25.93
2018-05-31T22:31:10.280Z,27.27
2018-05-31T22:33:37.949Z,25.17
2018-05-31T22:36:05.545Z,26.07
2018-05-31T22:38:33.163Z,27.33
2018-05-31T22:41:00.730Z,27.07
2018-05-31T22:43:28.354Z,26.60
2018-05-31T22:45:55.980Z,26.53
2018-05-31T22:48:23.567Z,28.37
2018-05-31T22:50:51.197Z,27.70
2018-05-31T22:53:18.856Z,26.83
2018-05-31T22:55:46.476Z,28.97
2018-05-31T22:58:14.071Z,26.23
2018-05-31T23:00:41.670Z,28.80
2018-05-31T23:03:09.209Z,29.40
2018-05-31T23:05:37.426Z,27.90
2018-05-31T23:08:05.112Z,26.20
2018-05-31T23:10:32.721Z,27.57
2018-05-31T23:13:00.303Z,27.03
2018-05-31T23:15:27.880Z,28.47
2018-05-31T23:17:55.996Z,28.80
2018-05-31T23:20:23.596Z,30.90
2018-05-31T23:22:51.150Z,29.90
2018-05-31T23:25:18.711Z,29.47
2018-05-31T23:27:46.361Z,26.53
2018-05-31T23:30:14.747Z,25.40
2018-05-31T23:32:42.340Z,24.57
2018-05-31T23:35:09.985Z,25.37
2018-05-31T23:37:37.587Z,23.80
2018-05-31T23:40:05.177Z,24.53
2018-05-31T23:42:32.717Z,24.60
2018-05-31T23:45:00.299Z,24.07
2018-05-31T23:47:27.877Z,25.93
2018-05-31T23:49:55.457Z,28.90
2018-05-31T23:52:23.036Z,27.83
2018-05-31T23:54:50.615Z,29.57
2018-05-31T23:57:18.192Z,24.33
2018-05-31T23:59:45.808Z,23.57
